El Hierro > ESTACION METEOROLÓGICA La Dehesa - Frontera

DATOS ACTUALES Online

Ultima actulizacion 51 minutos

21.7 ºC

Temperatura

93

Humedad (%)

Presión (mb)

0.8

Precipitación (mm)

7 W

Viento (Km/h)

DATOS DIARIOS

Temperatura últimas 24 horas (ºC)

Humedad últimas 24 horas (%)

Presión atmosférica últimas 24 horas (mb)

Precipitaciones últimas 23 horas (mm)

Viento últimas 24 horas (Km/h)

Hora Temperatura (°C) ºC Precipitación (mm) mm Presión (mb) mb Humedad (%) % Viento (Km/h) km/h
24 - 23:00 25.5 0 0 63 38.7 O
25 - 00:00 25.3 0 0 61 48 NO
25 - 01:00 25.3 0 0 72 47.1 NO
25 - 02:00 23.7 0 0 78 6.4 S
25 - 03:00 23.5 0 0 84 38.6 O
25 - 04:00 23.7 0 0 79 17 NW
25 - 05:00 24 0 0 78 24.5 O
25 - 06:00 23.5 0 0 82 4.6 NW
25 - 07:00 23.2 0 0 89 16 SO
25 - 08:00 23.1 0 0 85 13 N
25 - 09:00 23 0 0 89 8.7 N
25 - 10:00 23 0.5 0 92 6.8 SO
25 - 11:00 21.6 0.5 0 96 5.9 SW
25 - 12:00 21.4 0.6 0 98 12.7 S
25 - 13:00 20.5 0.6 0 96 18.5 NO
25 - 14:00 22.2 0.6 0 88 13.5 NO
25 - 15:00 22 0.6 0 95 10.8 SO
25 - 16:00 21.8 0.6 0 96 10.7 SO
25 - 17:00 21.5 0.6 0 96 8.1 S
25 - 18:00 21.4 0.7 0 97 8 SO
25 - 19:00 21.4 0.7 0 97 3.8 W
25 - 20:00 21.1 0.7 0 98 11.5 S
25 - 21:00 21.2 0.7 0 98 9.5 SO
25 - 22:00 21.1 0.7 0 97 14.6 SO
25 - 23:00 21.7 0.8 0 93 7 W
Apalmet utiliza cookies propias y de terceros para mejorar la usabilidad y la experiencia web. Política de cookies.